sensor_id;sensor_type;location;lat;lon;timestamp;P1;durP1;ratioP1;P2;durP2;ratioP2
40931;SDS011;36257;46.052;12.540;2023-12-07T00:00:49;9.30;;;8.60;;
40931;SDS011;36257;46.052;12.540;2023-12-07T00:03:14;10.77;;;9.80;;
40931;SDS011;36257;46.052;12.540;2023-12-07T00:05:40;9.40;;;8.60;;
40931;SDS011;36257;46.052;12.540;2023-12-07T00:08:08;8.77;;;8.07;;
40931;SDS011;36257;46.052;12.540;2023-12-07T00:10:35;9.27;;;8.67;;
40931;SDS011;36257;46.052;12.540;2023-12-07T00:13:01;9.30;;;8.53;;
40931;SDS011;36257;46.052;12.540;2023-12-07T00:15:27;10.30;;;9.30;;
40931;SDS011;36257;46.052;12.540;2023-12-07T00:17:53;10.93;;;8.33;;
40931;SDS011;36257;46.052;12.540;2023-12-07T00:20:18;8.70;;;8.00;;
40931;SDS011;36257;46.052;12.540;2023-12-07T00:22:44;10.07;;;9.17;;
40931;SDS011;36257;46.052;12.540;2023-12-07T00:25:09;10.40;;;9.57;;
40931;SDS011;36257;46.052;12.540;2023-12-07T00:27:35;9.87;;;8.87;;
40931;SDS011;36257;46.052;12.540;2023-12-07T00:30:01;10.43;;;9.53;;
40931;SDS011;36257;46.052;12.540;2023-12-07T00:32:28;10.23;;;9.35;;
40931;SDS011;36257;46.052;12.540;2023-12-07T00:34:54;11.63;;;10.63;;
40931;SDS011;36257;46.052;12.540;2023-12-07T00:37:19;11.67;;;10.73;;
40931;SDS011;36257;46.052;12.540;2023-12-07T00:39:45;11.30;;;10.30;;
40931;SDS011;36257;46.052;12.540;2023-12-07T00:42:11;12.03;;;10.83;;
40931;SDS011;36257;46.052;12.540;2023-12-07T00:44:40;11.63;;;10.50;;
40931;SDS011;36257;46.052;12.540;2023-12-07T00:47:05;12.37;;;11.17;;
40931;SDS011;36257;46.052;12.540;2023-12-07T00:49:31;11.93;;;10.93;;
40931;SDS011;36257;46.052;12.540;2023-12-07T00:51:57;12.13;;;11.13;;
40931;SDS011;36257;46.052;12.540;2023-12-07T00:54:22;10.83;;;9.73;;
40931;SDS011;36257;46.052;12.540;2023-12-07T00:56:48;11.40;;;10.50;;
40931;SDS011;36257;46.052;12.540;2023-12-07T00:59:14;10.50;;;9.60;;
40931;SDS011;36257;46.052;12.540;2023-12-07T01:01:39;10.70;;;9.77;;
40931;SDS011;36257;46.052;12.540;2023-12-07T01:04:05;12.30;;;11.20;;
40931;SDS011;36257;46.052;12.540;2023-12-07T01:06:31;11.17;;;10.27;;
40931;SDS011;36257;46.052;12.540;2023-12-07T01:08:57;11.70;;;10.70;;
40931;SDS011;36257;46.052;12.540;2023-12-07T01:11:22;11.70;;;10.80;;
40931;SDS011;36257;46.052;12.540;2023-12-07T01:13:48;11.77;;;10.67;;
40931;SDS011;36257;46.052;12.540;2023-12-07T01:16:14;13.27;;;11.77;;
40931;SDS011;36257;46.052;12.540;2023-12-07T01:18:39;12.30;;;11.30;;
40931;SDS011;36257;46.052;12.540;2023-12-07T01:21:05;12.10;;;11.00;;
40931;SDS011;36257;46.052;12.540;2023-12-07T01:23:31;13.10;;;11.90;;
40931;SDS011;36257;46.052;12.540;2023-12-07T01:25:57;12.30;;;11.10;;
40931;SDS011;36257;46.052;12.540;2023-12-07T01:28:22;10.83;;;9.97;;
40931;SDS011;36257;46.052;12.540;2023-12-07T01:30:48;11.40;;;10.40;;
40931;SDS011;36257;46.052;12.540;2023-12-07T01:33:14;12.93;;;11.83;;
40931;SDS011;36257;46.052;12.540;2023-12-07T01:35:40;11.80;;;10.80;;
40931;SDS011;36257;46.052;12.540;2023-12-07T01:38:06;12.57;;;11.47;;
40931;SDS011;36257;46.052;12.540;2023-12-07T01:40:31;14.60;;;13.30;;
40931;SDS011;36257;46.052;12.540;2023-12-07T01:42:57;13.13;;;11.77;;
40931;SDS011;36257;46.052;12.540;2023-12-07T01:45:23;11.97;;;10.80;;
40931;SDS011;36257;46.052;12.540;2023-12-07T01:47:49;11.67;;;10.70;;
40931;SDS011;36257;46.052;12.540;2023-12-07T01:50:16;12.43;;;11.23;;
40931;SDS011;36257;46.052;12.540;2023-12-07T01:52:49;12.70;;;11.57;;
40931;SDS011;36257;46.052;12.540;2023-12-07T01:55:19;12.90;;;11.70;;
40931;SDS011;36257;46.052;12.540;2023-12-07T02:00:14;13.20;;;11.95;;
40931;SDS011;36257;46.052;12.540;2023-12-07T02:02:41;11.70;;;10.65;;
40931;SDS011;36257;46.052;12.540;2023-12-07T02:05:08;12.70;;;11.60;;
40931;SDS011;36257;46.052;12.540;2023-12-07T02:07:34;12.00;;;10.90;;
40931;SDS011;36257;46.052;12.540;2023-12-07T02:10:00;13.17;;;11.97;;
40931;SDS011;36257;46.052;12.540;2023-12-07T02:12:25;12.20;;;11.07;;
40931;SDS011;36257;46.052;12.540;2023-12-07T02:14:54;11.77;;;10.67;;
40931;SDS011;36257;46.052;12.540;2023-12-07T02:17:27;12.70;;;11.60;;
40931;SDS011;36257;46.052;12.540;2023-12-07T02:20:11;11.70;;;10.70;;
40931;SDS011;36257;46.052;12.540;2023-12-07T02:22:54;11.30;;;10.23;;
40931;SDS011;36257;46.052;12.540;2023-12-07T02:25:24;13.27;;;11.97;;
40931;SDS011;36257;46.052;12.540;2023-12-07T02:28:01;12.97;;;11.83;;
40931;SDS011;36257;46.052;12.540;2023-12-07T02:30:27;12.70;;;11.60;;
40931;SDS011;36257;46.052;12.540;2023-12-07T02:32:53;12.27;;;11.27;;
40931;SDS011;36257;46.052;12.540;2023-12-07T02:35:19;11.37;;;10.37;;
40931;SDS011;36257;46.052;12.540;2023-12-07T02:40:12;12.32;;;11.35;;
40931;SDS011;36257;46.052;12.540;2023-12-07T02:42:40;12.73;;;11.60;;
40931;SDS011;36257;46.052;12.540;2023-12-07T02:45:08;12.70;;;11.37;;
40931;SDS011;36257;46.052;12.540;2023-12-07T02:47:34;13.57;;;12.38;;
40931;SDS011;36257;46.052;12.540;2023-12-07T02:50:00;12.40;;;11.30;;
40931;SDS011;36257;46.052;12.540;2023-12-07T02:52:26;12.93;;;11.73;;
40931;SDS011;36257;46.052;12.540;2023-12-07T02:54:52;13.67;;;12.27;;
40931;SDS011;36257;46.052;12.540;2023-12-07T02:57:17;12.17;;;11.07;;
40931;SDS011;36257;46.052;12.540;2023-12-07T02:59:43;13.17;;;11.87;;
40931;SDS011;36257;46.052;12.540;2023-12-07T03:02:08;13.67;;;12.47;;
40931;SDS011;36257;46.052;12.540;2023-12-07T03:04:34;14.17;;;12.90;;
40931;SDS011;36257;46.052;12.540;2023-12-07T03:07:00;13.53;;;12.40;;
40931;SDS011;36257;46.052;12.540;2023-12-07T03:09:25;15.37;;;13.93;;
40931;SDS011;36257;46.052;12.540;2023-12-07T03:11:51;13.27;;;11.90;;
40931;SDS011;36257;46.052;12.540;2023-12-07T03:14:16;13.50;;;12.40;;
40931;SDS011;36257;46.052;12.540;2023-12-07T03:16:42;12.43;;;11.23;;
40931;SDS011;36257;46.052;12.540;2023-12-07T03:19:08;12.40;;;11.20;;
40931;SDS011;36257;46.052;12.540;2023-12-07T03:21:34;11.40;;;10.43;;
40931;SDS011;36257;46.052;12.540;2023-12-07T03:24:04;13.17;;;11.97;;
40931;SDS011;36257;46.052;12.540;2023-12-07T03:26:31;12.15;;;10.75;;
40931;SDS011;36257;46.052;12.540;2023-12-07T03:28:56;11.30;;;10.20;;
40931;SDS011;36257;46.052;12.540;2023-12-07T03:31:22;12.07;;;11.07;;
40931;SDS011;36257;46.052;12.540;2023-12-07T03:33:47;11.77;;;10.53;;
40931;SDS011;36257;46.052;12.540;2023-12-07T03:36:13;11.03;;;10.13;;
40931;SDS011;36257;46.052;12.540;2023-12-07T03:38:39;11.80;;;10.67;;
40931;SDS011;36257;46.052;12.540;2023-12-07T03:41:04;10.67;;;9.63;;
40931;SDS011;36257;46.052;12.540;2023-12-07T03:43:30;12.83;;;11.27;;
40931;SDS011;36257;46.052;12.540;2023-12-07T03:45:56;14.33;;;13.03;;
40931;SDS011;36257;46.052;12.540;2023-12-07T03:48:21;12.83;;;11.73;;
40931;SDS011;36257;46.052;12.540;2023-12-07T03:50:47;13.77;;;12.47;;
40931;SDS011;36257;46.052;12.540;2023-12-07T03:53:12;12.53;;;11.37;;
40931;SDS011;36257;46.052;12.540;2023-12-07T03:55:38;12.87;;;11.67;;
40931;SDS011;36257;46.052;12.540;2023-12-07T03:58:04;12.97;;;11.77;;
40931;SDS011;36257;46.052;12.540;2023-12-07T04:00:31;14.20;;;12.83;;
40931;SDS011;36257;46.052;12.540;2023-12-07T04:02:57;11.75;;;10.75;;
40931;SDS011;36257;46.052;12.540;2023-12-07T04:05:23;12.67;;;11.47;;
40931;SDS011;36257;46.052;12.540;2023-12-07T04:07:49;13.70;;;12.37;;
40931;SDS011;36257;46.052;12.540;2023-12-07T04:10:14;11.43;;;10.33;;
40931;SDS011;36257;46.052;12.540;2023-12-07T04:12:40;12.10;;;11.00;;
40931;SDS011;36257;46.052;12.540;2023-12-07T04:15:06;13.20;;;11.90;;
40931;SDS011;36257;46.052;12.540;2023-12-07T04:17:32;11.87;;;10.87;;
40931;SDS011;36257;46.052;12.540;2023-12-07T04:19:58;11.93;;;10.77;;
40931;SDS011;36257;46.052;12.540;2023-12-07T04:22:24;11.63;;;10.53;;
40931;SDS011;36257;46.052;12.540;2023-12-07T04:24:49;12.37;;;11.17;;
40931;SDS011;36257;46.052;12.540;2023-12-07T04:27:15;12.07;;;10.87;;
40931;SDS011;36257;46.052;12.540;2023-12-07T04:29:41;11.07;;;10.07;;
40931;SDS011;36257;46.052;12.540;2023-12-07T04:32:07;11.10;;;9.90;;
40931;SDS011;36257;46.052;12.540;2023-12-07T04:34:32;11.27;;;10.07;;
40931;SDS011;36257;46.052;12.540;2023-12-07T04:36:58;11.43;;;10.30;;
40931;SDS011;36257;46.052;12.540;2023-12-07T04:39:24;11.87;;;10.57;;
40931;SDS011;36257;46.052;12.540;2023-12-07T04:41:50;13.13;;;11.53;;
40931;SDS011;36257;46.052;12.540;2023-12-07T04:44:16;11.93;;;10.53;;
40931;SDS011;36257;46.052;12.540;2023-12-07T04:46:42;11.23;;;10.07;;
40931;SDS011;36257;46.052;12.540;2023-12-07T04:49:08;9.63;;;8.83;;
40931;SDS011;36257;46.052;12.540;2023-12-07T04:51:33;12.53;;;11.43;;
40931;SDS011;36257;46.052;12.540;2023-12-07T04:53:59;11.70;;;10.63;;
40931;SDS011;36257;46.052;12.540;2023-12-07T04:56:25;13.63;;;12.30;;
40931;SDS011;36257;46.052;12.540;2023-12-07T04:58:50;14.13;;;12.67;;
40931;SDS011;36257;46.052;12.540;2023-12-07T05:01:16;13.70;;;12.37;;
40931;SDS011;36257;46.052;12.540;2023-12-07T05:03:44;12.45;;;11.35;;
40931;SDS011;36257;46.052;12.540;2023-12-07T05:06:09;11.07;;;10.17;;
40931;SDS011;36257;46.052;12.540;2023-12-07T05:08:35;10.23;;;9.23;;
40931;SDS011;36257;46.052;12.540;2023-12-07T05:11:01;9.37;;;8.53;;
40931;SDS011;36257;46.052;12.540;2023-12-07T05:13:27;9.60;;;8.70;;
40931;SDS011;36257;46.052;12.540;2023-12-07T05:15:52;9.63;;;8.87;;
40931;SDS011;36257;46.052;12.540;2023-12-07T05:18:18;11.03;;;9.40;;
40931;SDS011;36257;46.052;12.540;2023-12-07T05:20:43;11.93;;;10.93;;
40931;SDS011;36257;46.052;12.540;2023-12-07T05:23:09;13.00;;;11.80;;
40931;SDS011;36257;46.052;12.540;2023-12-07T05:25:35;11.73;;;10.63;;
40931;SDS011;36257;46.052;12.540;2023-12-07T05:28:00;11.93;;;10.77;;
40931;SDS011;36257;46.052;12.540;2023-12-07T05:30:26;12.10;;;11.00;;
40931;SDS011;36257;46.052;12.540;2023-12-07T05:32:53;11.93;;;10.83;;
40931;SDS011;36257;46.052;12.540;2023-12-07T05:35:18;12.70;;;11.60;;
40931;SDS011;36257;46.052;12.540;2023-12-07T05:37:45;11.48;;;10.48;;
40931;SDS011;36257;46.052;12.540;2023-12-07T05:40:11;12.07;;;10.97;;
40931;SDS011;36257;46.052;12.540;2023-12-07T05:42:39;12.83;;;11.50;;
40931;SDS011;36257;46.052;12.540;2023-12-07T05:45:05;13.03;;;11.83;;
40931;SDS011;36257;46.052;12.540;2023-12-07T05:47:31;13.87;;;12.47;;
40931;SDS011;36257;46.052;12.540;2023-12-07T05:49:57;17.20;;;15.50;;
40931;SDS011;36257;46.052;12.540;2023-12-07T05:54:50;12.40;;;10.67;;
40931;SDS011;36257;46.052;12.540;2023-12-07T05:57:16;12.53;;;11.30;;
40931;SDS011;36257;46.052;12.540;2023-12-07T05:59:41;11.10;;;10.00;;
40931;SDS011;36257;46.052;12.540;2023-12-07T06:02:08;10.97;;;10.00;;
40931;SDS011;36257;46.052;12.540;2023-12-07T06:04:34;11.00;;;10.00;;
40931;SDS011;36257;46.052;12.540;2023-12-07T06:06:59;12.33;;;10.80;;
40931;SDS011;36257;46.052;12.540;2023-12-07T06:09:25;10.23;;;9.20;;
40931;SDS011;36257;46.052;12.540;2023-12-07T06:11:51;10.70;;;9.73;;
40931;SDS011;36257;46.052;12.540;2023-12-07T06:14:16;10.10;;;9.17;;
40931;SDS011;36257;46.052;12.540;2023-12-07T06:16:42;9.50;;;8.70;;
40931;SDS011;36257;46.052;12.540;2023-12-07T06:19:08;9.23;;;8.43;;
40931;SDS011;36257;46.052;12.540;2023-12-07T06:21:33;19.80;;;17.50;;
40931;SDS011;36257;46.052;12.540;2023-12-07T06:23:59;15.17;;;13.57;;
40931;SDS011;36257;46.052;12.540;2023-12-07T06:26:25;11.30;;;10.23;;
40931;SDS011;36257;46.052;12.540;2023-12-07T06:28:51;10.53;;;9.43;;
40931;SDS011;36257;46.052;12.540;2023-12-07T06:31:16;11.63;;;10.60;;
40931;SDS011;36257;46.052;12.540;2023-12-07T06:33:46;10.90;;;9.80;;
40931;SDS011;36257;46.052;12.540;2023-12-07T06:36:17;10.67;;;9.77;;
40931;SDS011;36257;46.052;12.540;2023-12-07T06:38:44;9.23;;;8.53;;
40931;SDS011;36257;46.052;12.540;2023-12-07T06:41:10;13.27;;;8.70;;
40931;SDS011;36257;46.052;12.540;2023-12-07T06:43:35;8.40;;;7.80;;
40931;SDS011;36257;46.052;12.540;2023-12-07T06:46:01;7.10;;;6.60;;
40931;SDS011;36257;46.052;12.540;2023-12-07T06:48:26;7.80;;;7.20;;
40931;SDS011;36257;46.052;12.540;2023-12-07T06:50:52;8.03;;;7.53;;
40931;SDS011;36257;46.052;12.540;2023-12-07T06:53:18;7.47;;;6.97;;
40931;SDS011;36257;46.052;12.540;2023-12-07T06:55:43;7.87;;;7.27;;
40931;SDS011;36257;46.052;12.540;2023-12-07T06:58:09;6.33;;;6.00;;
40931;SDS011;36257;46.052;12.540;2023-12-07T07:00:35;7.07;;;6.63;;
40931;SDS011;36257;46.052;12.540;2023-12-07T07:03:01;7.80;;;7.20;;
40931;SDS011;36257;46.052;12.540;2023-12-07T07:05:27;5.63;;;5.23;;
40931;SDS011;36257;46.052;12.540;2023-12-07T07:07:52;7.63;;;7.13;;
40931;SDS011;36257;46.052;12.540;2023-12-07T07:10:20;8.48;;;7.78;;
40931;SDS011;36257;46.052;12.540;2023-12-07T07:12:46;7.20;;;6.80;;
40931;SDS011;36257;46.052;12.540;2023-12-07T07:15:11;6.77;;;6.37;;
40931;SDS011;36257;46.052;12.540;2023-12-07T07:17:37;7.87;;;7.47;;
40931;SDS011;36257;46.052;12.540;2023-12-07T07:20:03;7.40;;;6.93;;
40931;SDS011;36257;46.052;12.540;2023-12-07T07:22:29;15.90;;;14.80;;
40931;SDS011;36257;46.052;12.540;2023-12-07T07:24:55;10.57;;;9.77;;
40931;SDS011;36257;46.052;12.540;2023-12-07T07:27:20;9.17;;;8.53;;
40931;SDS011;36257;46.052;12.540;2023-12-07T07:29:46;7.57;;;7.07;;
40931;SDS011;36257;46.052;12.540;2023-12-07T07:32:12;7.63;;;7.03;;
40931;SDS011;36257;46.052;12.540;2023-12-07T07:34:37;5.97;;;5.67;;
40931;SDS011;36257;46.052;12.540;2023-12-07T07:37:04;6.83;;;6.43;;
40931;SDS011;36257;46.052;12.540;2023-12-07T07:39:32;7.13;;;6.63;;
40931;SDS011;36257;46.052;12.540;2023-12-07T07:41:57;7.63;;;6.83;;
40931;SDS011;36257;46.052;12.540;2023-12-07T07:44:23;7.90;;;7.33;;
40931;SDS011;36257;46.052;12.540;2023-12-07T07:46:49;8.73;;;7.93;;
40931;SDS011;36257;46.052;12.540;2023-12-07T07:49:14;9.57;;;8.77;;
40931;SDS011;36257;46.052;12.540;2023-12-07T07:51:40;9.63;;;8.73;;
40931;SDS011;36257;46.052;12.540;2023-12-07T07:54:05;11.80;;;9.77;;
40931;SDS011;36257;46.052;12.540;2023-12-07T07:56:31;10.13;;;9.00;;
40931;SDS011;36257;46.052;12.540;2023-12-07T07:58:57;13.07;;;10.40;;
40931;SDS011;36257;46.052;12.540;2023-12-07T08:01:25;15.97;;;12.83;;
40931;SDS011;36257;46.052;12.540;2023-12-07T08:03:51;16.70;;;13.50;;
40931;SDS011;36257;46.052;12.540;2023-12-07T08:06:17;21.87;;;16.33;;
40931;SDS011;36257;46.052;12.540;2023-12-07T08:08:42;23.90;;;19.23;;
40931;SDS011;36257;46.052;12.540;2023-12-07T08:11:08;29.60;;;23.93;;
40931;SDS011;36257;46.052;12.540;2023-12-07T08:13:34;31.83;;;26.53;;
40931;SDS011;36257;46.052;12.540;2023-12-07T08:15:59;33.13;;;29.53;;
40931;SDS011;36257;46.052;12.540;2023-12-07T08:18:26;32.53;;;29.13;;
40931;SDS011;36257;46.052;12.540;2023-12-07T08:20:51;33.27;;;28.30;;
40931;SDS011;36257;46.052;12.540;2023-12-07T08:23:17;35.57;;;30.60;;
40931;SDS011;36257;46.052;12.540;2023-12-07T08:25:43;32.40;;;28.50;;
40931;SDS011;36257;46.052;12.540;2023-12-07T08:28:08;32.37;;;29.07;;
40931;SDS011;36257;46.052;12.540;2023-12-07T08:30:35;32.93;;;29.37;;
40931;SDS011;36257;46.052;12.540;2023-12-07T08:33:01;35.47;;;31.70;;
40931;SDS011;36257;46.052;12.540;2023-12-07T08:35:27;38.43;;;32.07;;
40931;SDS011;36257;46.052;12.540;2023-12-07T08:37:52;37.35;;;31.33;;
40931;SDS011;36257;46.052;12.540;2023-12-07T08:40:18;35.13;;;30.10;;
40931;SDS011;36257;46.052;12.540;2023-12-07T08:42:44;34.63;;;30.83;;
40931;SDS011;36257;46.052;12.540;2023-12-07T08:45:11;35.13;;;31.35;;
40931;SDS011;36257;46.052;12.540;2023-12-07T08:47:39;37.55;;;32.80;;
40931;SDS011;36257;46.052;12.540;2023-12-07T08:50:05;34.22;;;30.08;;
40931;SDS011;36257;46.052;12.540;2023-12-07T08:52:32;34.13;;;29.42;;
40931;SDS011;36257;46.052;12.540;2023-12-07T08:54:59;28.77;;;25.70;;
40931;SDS011;36257;46.052;12.540;2023-12-07T08:57:25;28.05;;;24.88;;
40931;SDS011;36257;46.052;12.540;2023-12-07T08:59:50;29.45;;;26.00;;
40931;SDS011;36257;46.052;12.540;2023-12-07T09:02:16;31.35;;;27.52;;
40931;SDS011;36257;46.052;12.540;2023-12-07T09:04:42;29.92;;;26.42;;
40931;SDS011;36257;46.052;12.540;2023-12-07T09:07:07;28.90;;;25.95;;
40931;SDS011;36257;46.052;12.540;2023-12-07T09:09:34;30.13;;;26.88;;
40931;SDS011;36257;46.052;12.540;2023-12-07T09:12:00;29.95;;;24.75;;
40931;SDS011;36257;46.052;12.540;2023-12-07T09:14:25;27.67;;;24.77;;
40931;SDS011;36257;46.052;12.540;2023-12-07T09:16:51;26.92;;;24.10;;
40931;SDS011;36257;46.052;12.540;2023-12-07T09:19:17;20.33;;;18.25;;
40931;SDS011;36257;46.052;12.540;2023-12-07T09:21:43;22.40;;;19.45;;
40931;SDS011;36257;46.052;12.540;2023-12-07T09:24:09;19.55;;;17.55;;
40931;SDS011;36257;46.052;12.540;2023-12-07T09:26:34;23.08;;;19.60;;
40931;SDS011;36257;46.052;12.540;2023-12-07T09:29:01;21.38;;;19.33;;
40931;SDS011;36257;46.052;12.540;2023-12-07T09:31:27;20.35;;;18.25;;
40931;SDS011;36257;46.052;12.540;2023-12-07T09:33:53;19.17;;;17.25;;
40931;SDS011;36257;46.052;12.540;2023-12-07T09:36:19;19.63;;;17.58;;
40931;SDS011;36257;46.052;12.540;2023-12-07T09:38:46;19.50;;;17.50;;
40931;SDS011;36257;46.052;12.540;2023-12-07T09:41:12;17.20;;;15.27;;
40931;SDS011;36257;46.052;12.540;2023-12-07T09:43:38;12.95;;;11.65;;
40931;SDS011;36257;46.052;12.540;2023-12-07T09:46:05;13.90;;;12.32;;
40931;SDS011;36257;46.052;12.540;2023-12-07T09:48:31;15.25;;;13.02;;
40931;SDS011;36257;46.052;12.540;2023-12-07T09:50:57;13.95;;;12.40;;
40931;SDS011;36257;46.052;12.540;2023-12-07T09:53:26;13.32;;;12.02;;
40931;SDS011;36257;46.052;12.540;2023-12-07T09:55:54;13.75;;;12.35;;
40931;SDS011;36257;46.052;12.540;2023-12-07T09:58:20;13.98;;;12.57;;
40931;SDS011;36257;46.052;12.540;2023-12-07T10:00:46;15.70;;;13.40;;
40931;SDS011;36257;46.052;12.540;2023-12-07T10:03:20;14.25;;;12.88;;
40931;SDS011;36257;46.052;12.540;2023-12-07T10:05:57;12.82;;;11.45;;
40931;SDS011;36257;46.052;12.540;2023-12-07T10:13:33;9.20;;;8.27;;
40931;SDS011;36257;46.052;12.540;2023-12-07T10:16:06;12.43;;;8.18;;
40931;SDS011;36257;46.052;12.540;2023-12-07T10:18:34;24.90;;;8.93;;
40931;SDS011;36257;46.052;12.540;2023-12-07T10:21:01;10.00;;;9.00;;
40931;SDS011;36257;46.052;12.540;2023-12-07T10:23:28;10.20;;;9.10;;
40931;SDS011;36257;46.052;12.540;2023-12-07T10:25:56;9.00;;;7.97;;
40931;SDS011;36257;46.052;12.540;2023-12-07T10:28:23;10.15;;;9.10;;
40931;SDS011;36257;46.052;12.540;2023-12-07T10:30:49;9.57;;;8.05;;
40931;SDS011;36257;46.052;12.540;2023-12-07T10:33:16;7.32;;;6.63;;
40931;SDS011;36257;46.052;12.540;2023-12-07T10:35:44;8.43;;;7.63;;
40931;SDS011;36257;46.052;12.540;2023-12-07T10:38:10;10.15;;;8.43;;
40931;SDS011;36257;46.052;12.540;2023-12-07T10:40:36;8.90;;;7.90;;
40931;SDS011;36257;46.052;12.540;2023-12-07T10:43:04;8.63;;;7.72;;
40931;SDS011;36257;46.052;12.540;2023-12-07T10:45:31;7.55;;;6.82;;
40931;SDS011;36257;46.052;12.540;2023-12-07T10:48:02;7.78;;;6.47;;
40931;SDS011;36257;46.052;12.540;2023-12-07T10:50:31;8.90;;;6.93;;
40931;SDS011;36257;46.052;12.540;2023-12-07T10:52:59;8.68;;;6.47;;
40931;SDS011;36257;46.052;12.540;2023-12-07T10:55:52;7.63;;;6.93;;
40931;SDS011;36257;46.052;12.540;2023-12-07T10:58:21;7.78;;;7.03;;
40931;SDS011;36257;46.052;12.540;2023-12-07T11:00:50;7.65;;;6.72;;
40931;SDS011;36257;46.052;12.540;2023-12-07T11:03:17;6.80;;;6.13;;
40931;SDS011;36257;46.052;12.540;2023-12-07T11:05:49;7.18;;;6.47;;
40931;SDS011;36257;46.052;12.540;2023-12-07T11:11:31;6.20;;;5.60;;
40931;SDS011;36257;46.052;12.540;2023-12-07T11:14:13;6.88;;;6.28;;
40931;SDS011;36257;46.052;12.540;2023-12-07T11:27:03;5.65;;;5.15;;
40931;SDS011;36257;46.052;12.540;2023-12-07T11:29:29;5.38;;;4.88;;
40931;SDS011;36257;46.052;12.540;2023-12-07T11:31:56;5.77;;;5.20;;
40931;SDS011;36257;46.052;12.540;2023-12-07T11:34:38;6.10;;;5.00;;
40931;SDS011;36257;46.052;12.540;2023-12-07T11:37:10;5.82;;;5.22;;
40931;SDS011;36257;46.052;12.540;2023-12-07T11:39:40;4.50;;;4.10;;
40931;SDS011;36257;46.052;12.540;2023-12-07T11:42:16;4.07;;;3.67;;
40931;SDS011;36257;46.052;12.540;2023-12-07T11:44:47;3.08;;;2.78;;
40931;SDS011;36257;46.052;12.540;2023-12-07T11:47:18;4.20;;;2.85;;
40931;SDS011;36257;46.052;12.540;2023-12-07T11:49:45;5.30;;;3.90;;
40931;SDS011;36257;46.052;12.540;2023-12-07T11:52:18;3.47;;;3.15;;
40931;SDS011;36257;46.052;12.540;2023-12-07T11:54:45;3.65;;;3.35;;
40931;SDS011;36257;46.052;12.540;2023-12-07T11:57:11;3.78;;;3.47;;
40931;SDS011;36257;46.052;12.540;2023-12-07T11:59:41;5.60;;;3.70;;
40931;SDS011;36257;46.052;12.540;2023-12-07T12:02:10;4.20;;;3.80;;
40931;SDS011;36257;46.052;12.540;2023-12-07T12:04:36;4.45;;;3.83;;
40931;SDS011;36257;46.052;12.540;2023-12-07T12:07:03;4.10;;;3.35;;
40931;SDS011;36257;46.052;12.540;2023-12-07T12:09:29;3.45;;;2.92;;
40931;SDS011;36257;46.052;12.540;2023-12-07T12:11:56;4.72;;;3.60;;
40931;SDS011;36257;46.052;12.540;2023-12-07T12:14:25;4.38;;;3.03;;
40931;SDS011;36257;46.052;12.540;2023-12-07T12:16:52;3.67;;;3.30;;
40931;SDS011;36257;46.052;12.540;2023-12-07T12:19:18;3.40;;;3.10;;
40931;SDS011;36257;46.052;12.540;2023-12-07T12:21:43;3.20;;;2.95;;
40931;SDS011;36257;46.052;12.540;2023-12-07T12:24:10;3.60;;;3.30;;
40931;SDS011;36257;46.052;12.540;2023-12-07T12:26:37;4.13;;;3.83;;
40931;SDS011;36257;46.052;12.540;2023-12-07T12:29:08;4.82;;;4.18;;
40931;SDS011;36257;46.052;12.540;2023-12-07T12:31:36;3.53;;;3.22;;
40931;SDS011;36257;46.052;12.540;2023-12-07T12:34:07;4.30;;;3.90;;
40931;SDS011;36257;46.052;12.540;2023-12-07T12:36:34;4.68;;;4.00;;
40931;SDS011;36257;46.052;12.540;2023-12-07T12:39:00;5.43;;;4.53;;
40931;SDS011;36257;46.052;12.540;2023-12-07T12:41:27;5.00;;;4.60;;
40931;SDS011;36257;46.052;12.540;2023-12-07T12:43:55;4.50;;;3.95;;
40931;SDS011;36257;46.052;12.540;2023-12-07T12:46:21;4.80;;;4.40;;
40931;SDS011;36257;46.052;12.540;2023-12-07T12:48:58;6.65;;;4.80;;
40931;SDS011;36257;46.052;12.540;2023-12-07T12:51:26;4.95;;;4.45;;
40931;SDS011;36257;46.052;12.540;2023-12-07T12:54:01;5.47;;;4.95;;
40931;SDS011;36257;46.052;12.540;2023-12-07T12:56:27;5.32;;;4.82;;
40931;SDS011;36257;46.052;12.540;2023-12-07T12:58:54;6.32;;;5.15;;
40931;SDS011;36257;46.052;12.540;2023-12-07T13:01:23;6.03;;;5.43;;
40931;SDS011;36257;46.052;12.540;2023-12-07T13:03:49;5.93;;;5.32;;
40931;SDS011;36257;46.052;12.540;2023-12-07T13:06:15;5.85;;;5.00;;
40931;SDS011;36257;46.052;12.540;2023-12-07T13:08:43;5.70;;;5.10;;
40931;SDS011;36257;46.052;12.540;2023-12-07T13:13:45;7.57;;;6.88;;
40931;SDS011;36257;46.052;12.540;2023-12-07T13:16:14;7.78;;;6.85;;
40931;SDS011;36257;46.052;12.540;2023-12-07T13:18:43;7.05;;;6.35;;
40931;SDS011;36257;46.052;12.540;2023-12-07T13:21:11;7.38;;;6.38;;
40931;SDS011;36257;46.052;12.540;2023-12-07T13:23:39;9.43;;;8.63;;
40931;SDS011;36257;46.052;12.540;2023-12-07T13:26:06;7.47;;;6.78;;
40931;SDS011;36257;46.052;12.540;2023-12-07T13:28:39;7.13;;;6.47;;
40931;SDS011;36257;46.052;12.540;2023-12-07T13:31:23;7.90;;;6.85;;
40931;SDS011;36257;46.052;12.540;2023-12-07T13:33:50;7.18;;;6.47;;
40931;SDS011;36257;46.052;12.540;2023-12-07T13:36:20;8.13;;;7.28;;
40931;SDS011;36257;46.052;12.540;2023-12-07T13:39:08;8.48;;;6.70;;
40931;SDS011;36257;46.052;12.540;2023-12-07T13:51:01;7.10;;;6.40;;
40931;SDS011;36257;46.052;12.540;2023-12-07T13:54:14;7.22;;;6.55;;
40931;SDS011;36257;46.052;12.540;2023-12-07T14:46:30;18.20;;;9.80;;
40931;SDS011;36257;46.052;12.540;2023-12-07T14:48:59;18.80;;;9.98;;
40931;SDS011;36257;46.052;12.540;2023-12-07T14:51:25;12.30;;;8.10;;
40931;SDS011;36257;46.052;12.540;2023-12-07T14:53:52;11.75;;;8.85;;
40931;SDS011;36257;46.052;12.540;2023-12-07T14:56:25;13.73;;;10.18;;
40931;SDS011;36257;46.052;12.540;2023-12-07T14:58:51;10.57;;;9.27;;
40931;SDS011;36257;46.052;12.540;2023-12-07T15:01:17;9.68;;;6.93;;
40931;SDS011;36257;46.052;12.540;2023-12-07T15:03:43;7.75;;;6.13;;
40931;SDS011;36257;46.052;12.540;2023-12-07T15:06:11;8.23;;;6.88;;
40931;SDS011;36257;46.052;12.540;2023-12-07T15:08:37;8.23;;;7.40;;
40931;SDS011;36257;46.052;12.540;2023-12-07T15:11:06;8.60;;;7.13;;
40931;SDS011;36257;46.052;12.540;2023-12-07T15:13:34;8.52;;;7.70;;
40931;SDS011;36257;46.052;12.540;2023-12-07T15:16:01;8.23;;;7.35;;
40931;SDS011;36257;46.052;12.540;2023-12-07T15:18:28;8.25;;;6.72;;
40931;SDS011;36257;46.052;12.540;2023-12-07T15:23:48;9.07;;;7.00;;
40931;SDS011;36257;46.052;12.540;2023-12-07T15:26:17;8.32;;;7.53;;
40931;SDS011;36257;46.052;12.540;2023-12-07T15:49:16;12.40;;;11.10;;
40931;SDS011;36257;46.052;12.540;2023-12-07T15:51:42;12.50;;;11.20;;
40931;SDS011;36257;46.052;12.540;2023-12-07T16:01:53;28.60;;;16.83;;
40931;SDS011;36257;46.052;12.540;2023-12-07T16:04:23;13.73;;;11.13;;
40931;SDS011;36257;46.052;12.540;2023-12-07T16:12:00;11.70;;;10.17;;
40931;SDS011;36257;46.052;12.540;2023-12-07T16:48:06;9.37;;;8.47;;
40931;SDS011;36257;46.052;12.540;2023-12-07T16:50:32;10.10;;;9.13;;
40931;SDS011;36257;46.052;12.540;2023-12-07T16:52:57;9.33;;;8.63;;
40931;SDS011;36257;46.052;12.540;2023-12-07T16:55:23;9.63;;;8.83;;